Time;durP1;ratioP1;P1;durP2;ratioP2;P2;SDS_P1;SDS_P2;PMS_P1;PMS_P2;Temp;Humidity;BMP_temperature;BMP_pressure;BME280_temperature;BME280_humidity;BME280_pressure;Samples;Min_cycle;Max_cycle;Signal;HPM_P1;HPM_P2
2022/08/13 00:00:14;;;;;;;0.00;0.00;;;;;;;;;;5034189;28;20037;-86
2022/08/13 00:02:43;;;;;;;0.00;0.00;;;;;;;;;;5017509;28;20405;-86
2022/08/13 00:05:09;;;;;;;0.00;0.00;;;;;;;;;;5017626;28;20064;-87
2022/08/13 00:07:36;;;;;;;0.00;0.00;;;;;;;;;;5033910;28;20049;-87
2022/08/13 00:10:04;;;;;;;0.20;0.00;;;;;;;;;;5033995;28;20550;-86
2022/08/13 00:15:26;;;;;;;0.00;0.00;;;;;;;;;;5034363;28;20095;-86
2022/08/13 00:17:52;;;;;;;0.00;0.00;;;;;;;;;;5017364;28;20132;-85
2022/08/13 00:20:20;;;;;;;0.00;0.00;;;;;;;;;;5017392;28;20037;-86
2022/08/13 00:22:48;;;;;;;0.00;0.00;;;;;;;;;;5033574;28;20037;-86
2022/08/13 00:25:14;;;;;;;0.00;0.00;;;;;;;;;;5033738;28;20140;-85
2022/08/13 00:27:44;;;;;;;0.00;0.00;;;;;;;;;;5016898;28;20049;-85
2022/08/13 00:30:14;;;;;;;0.03;0.00;;;;;;;;;;5017552;28;20124;-86
2022/08/13 00:32:40;;;;;;;0.00;0.00;;;;;;;;;;5017019;28;20393;-85
2022/08/13 00:35:06;;;;;;;0.00;0.00;;;;;;;;;;5033475;28;20053;-86
2022/08/13 00:37:32;;;;;;;0.00;0.00;;;;;;;;;;5033229;28;20041;-86
2022/08/13 00:39:58;;;;;;;0.00;0.00;;;;;;;;;;5033662;28;20038;-85
2022/08/13 00:42:27;;;;;;;0.00;0.00;;;;;;;;;;5016952;28;20385;-87
2022/08/13 00:44:53;;;;;;;0.00;0.00;;;;;;;;;;5017270;28;20085;-87
2022/08/13 00:50:04;;;;;;;0.00;0.00;;;;;;;;;;5033209;28;20386;-86
2022/08/13 00:52:31;;;;;;;0.00;0.00;;;;;;;;;;5032990;28;20116;-86
2022/08/13 00:54:59;;;;;;;0.00;0.00;;;;;;;;;;5033330;28;20537;-87
2022/08/13 00:57:26;;;;;;;0.00;0.00;;;;;;;;;;5032980;28;20038;-87
2022/08/13 00:59:53;;;;;;;0.00;0.00;;;;;;;;;;5033341;28;20384;-87
2022/08/13 01:02:20;;;;;;;0.00;0.00;;;;;;;;;;5032631;28;20077;-88
2022/08/13 01:04:46;;;;;;;0.00;0.00;;;;;;;;;;5032981;28;20037;-86
2022/08/13 01:07:18;;;;;;;0.00;0.00;;;;;;;;;;5032374;28;20048;-86
2022/08/13 01:09:44;;;;;;;0.00;0.00;;;;;;;;;;5032292;28;20046;-86
2022/08/13 01:12:11;;;;;;;0.00;0.00;;;;;;;;;;5032552;28;20133;-86
2022/08/13 01:14:37;;;;;;;0.00;0.00;;;;;;;;;;5016136;28;20458;-86
2022/08/13 01:17:04;;;;;;;0.00;0.00;;;;;;;;;;5032612;28;20044;-88
2022/08/13 01:19:31;;;;;;;0.00;0.00;;;;;;;;;;5016257;28;20037;-86
2022/08/13 01:21:59;;;;;;;0.00;0.00;;;;;;;;;;5032325;28;20041;-86
2022/08/13 01:24:25;;;;;;;0.00;0.00;;;;;;;;;;5032562;28;20037;-88
2022/08/13 01:26:53;;;;;;;0.00;0.00;;;;;;;;;;5032301;28;20397;-86
2022/08/13 01:29:19;;;;;;;0.00;0.00;;;;;;;;;;5032419;28;20522;-86
2022/08/13 01:31:45;;;;;;;0.00;0.00;;;;;;;;;;5032332;28;20041;-86
2022/08/13 01:34:12;;;;;;;0.00;0.00;;;;;;;;;;5032381;28;20095;-86
2022/08/13 01:36:39;;;;;;;0.00;0.00;;;;;;;;;;5032271;28;20061;-87
2022/08/13 01:39:05;;;;;;;0.00;0.00;;;;;;;;;;5032154;28;20037;-85
2022/08/13 01:41:32;;;;;;;0.00;0.00;;;;;;;;;;5032136;28;20061;-88
2022/08/13 01:44:05;;;;;;;0.00;0.00;;;;;;;;;;5032165;28;20037;-88
2022/08/13 01:52:09;;;;;;;0.00;0.00;;;;;;;;;;5031940;28;20088;-87
2022/08/13 01:54:36;;;;;;;0.00;0.00;;;;;;;;;;5032058;28;20041;-86
2022/08/13 01:57:03;;;;;;;0.00;0.00;;;;;;;;;;5031964;28;20040;-86
2022/08/13 01:59:30;;;;;;;0.00;0.00;;;;;;;;;;5031971;28;20037;-85
2022/08/13 02:01:57;;;;;;;0.00;0.00;;;;;;;;;;5031838;28;20037;-86
2022/08/13 02:04:23;;;;;;;0.00;0.00;;;;;;;;;;5031877;28;20037;-86
2022/08/13 02:06:49;;;;;;;0.00;0.00;;;;;;;;;;5031845;28;20172;-86
2022/08/13 02:09:15;;;;;;;0.00;0.00;;;;;;;;;;5031557;28;20049;-86
2022/08/13 02:11:41;;;;;;;0.00;0.00;;;;;;;;;;5031797;28;20037;-86
2022/08/13 02:14:07;;;;;;;0.00;0.00;;;;;;;;;;5031511;28;20440;-86
2022/08/13 02:16:35;;;;;;;0.00;0.00;;;;;;;;;;5031567;28;20049;-87
2022/08/13 02:19:02;;;;;;;0.00;0.00;;;;;;;;;;5031330;28;20441;-86
2022/08/13 02:21:32;;;;;;;0.00;0.00;;;;;;;;;;5015437;28;20041;-86
2022/08/13 02:23:59;;;;;;;0.00;0.00;;;;;;;;;;5031586;28;20084;-87
2022/08/13 02:26:27;;;;;;;0.00;0.00;;;;;;;;;;5031742;28;20045;-87
2022/08/13 02:28:57;;;;;;;0.00;0.00;;;;;;;;;;5031212;28;20056;-87
2022/08/13 02:31:23;;;;;;;0.00;0.00;;;;;;;;;;5031510;28;20056;-87
2022/08/13 02:33:52;;;;;;;0.00;0.00;;;;;;;;;;5031165;28;20042;-86
2022/08/13 02:36:21;;;;;;;0.00;0.00;;;;;;;;;;5014646;28;20118;-86
2022/08/13 02:38:54;;;;;;;0.00;0.00;;;;;;;;;;5031515;28;20400;-87
2022/08/13 02:41:38;;;;;;;0.00;0.00;;;;;;;;;;5031368;28;20057;-86
2022/08/13 02:44:05;;;;;;;0.00;0.00;;;;;;;;;;5014681;28;20457;-86
2022/08/13 02:46:31;;;;;;;0.17;0.17;;;;;;;;;;5031148;28;20084;-87
2022/08/13 02:48:58;;;;;;;0.00;0.00;;;;;;;;;;5030848;28;20049;-85
2022/08/13 02:51:25;;;;;;;0.08;0.00;;;;;;;;;;5031239;28;20045;-85
2022/08/13 02:53:52;;;;;;;0.00;0.00;;;;;;;;;;5030990;28;20045;-85
2022/08/13 02:56:18;;;;;;;0.00;0.00;;;;;;;;;;5030996;28;20041;-86
2022/08/13 02:58:45;;;;;;;0.00;0.00;;;;;;;;;;5030931;28;20038;-86
2022/08/13 03:01:13;;;;;;;0.00;0.00;;;;;;;;;;5030952;28;20045;-88
2022/08/13 03:03:40;;;;;;;0.65;0.10;;;;;;;;;;5014621;28;20033;-87
2022/08/13 03:06:08;;;;;;;0.00;0.00;;;;;;;;;;5031000;28;20052;-87
2022/08/13 03:08:35;;;;;;;0.00;0.00;;;;;;;;;;5014262;28;20145;-87
2022/08/13 03:11:01;;;;;;;0.00;0.00;;;;;;;;;;5014541;28;20084;-86
2022/08/13 03:13:28;;;;;;;0.00;0.00;;;;;;;;;;5030906;28;20041;-86
2022/08/13 03:15:55;;;;;;;0.00;0.00;;;;;;;;;;5030939;28;20103;-88
2022/08/13 03:18:21;;;;;;;0.00;0.00;;;;;;;;;;5014497;28;20136;-88
2022/08/13 03:20:49;;;;;;;0.00;0.00;;;;;;;;;;5014862;28;20061;-86
2022/08/13 03:23:15;;;;;;;0.00;0.00;;;;;;;;;;5014407;28;20034;-86
2022/08/13 03:25:41;;;;;;;0.00;0.00;;;;;;;;;;5031221;28;20045;-87
2022/08/13 03:28:07;;;;;;;0.00;0.00;;;;;;;;;;5014732;28;20418;-88
2022/08/13 03:30:34;;;;;;;0.00;0.00;;;;;;;;;;5031039;28;20045;-87
2022/08/13 03:33:07;;;;;;;0.00;0.00;;;;;;;;;;5034808;28;20436;-87
2022/08/13 03:35:35;;;;;;;0.00;0.00;;;;;;;;;;5035115;28;20045;-88
2022/08/13 03:38:02;;;;;;;0.00;0.00;;;;;;;;;;5035186;28;20548;-88
2022/08/13 03:41:00;;;;;;;0.00;0.00;;;;;;;;;;5034992;28;20041;-89
2022/08/13 03:43:17;;;;;;;0.00;0.00;;;;;;;;;;5034688;28;20060;-86
2022/08/13 03:45:46;;;;;;;0.00;0.00;;;;;;;;;;5034687;28;20477;-87
2022/08/13 03:48:13;;;;;;;0.00;0.00;;;;;;;;;;5034596;28;20128;-88
2022/08/13 03:50:43;;;;;;;0.00;0.00;;;;;;;;;;5034327;28;20145;-86
2022/08/13 03:53:09;;;;;;;0.00;0.00;;;;;;;;;;5034438;28;20056;-87
2022/08/13 03:55:37;;;;;;;0.00;0.00;;;;;;;;;;5034563;28;20128;-86
2022/08/13 03:58:03;;;;;;;0.00;0.00;;;;;;;;;;5018305;28;20033;-86
2022/08/13 04:00:30;;;;;;;0.00;0.00;;;;;;;;;;5034159;28;20095;-86
2022/08/13 04:02:57;;;;;;;0.00;0.00;;;;;;;;;;5034631;28;20033;-86
2022/08/13 04:05:23;;;;;;;0.00;0.00;;;;;;;;;;5034162;28;20042;-86
2022/08/13 04:07:52;;;;;;;0.00;0.00;;;;;;;;;;5034415;28;20095;-88
2022/08/13 04:10:18;;;;;;;0.00;0.00;;;;;;;;;;5034476;28;20041;-89
2022/08/13 04:12:44;;;;;;;0.00;0.00;;;;;;;;;;5034724;28;20443;-87
2022/08/13 04:15:11;;;;;;;0.00;0.00;;;;;;;;;;5017858;28;20124;-86
2022/08/13 04:17:37;;;;;;;0.00;0.00;;;;;;;;;;5018296;28;20041;-87
2022/08/13 04:20:09;;;;;;;0.10;0.10;;;;;;;;;;5034357;28;20041;-87
2022/08/13 04:22:36;;;;;;;0.00;0.00;;;;;;;;;;5034538;28;20038;-87
2022/08/13 04:25:04;;;;;;;0.00;0.00;;;;;;;;;;5017512;28;20045;-86
2022/08/13 04:27:32;;;;;;;0.00;0.00;;;;;;;;;;5034249;28;20052;-87
2022/08/13 04:29:58;;;;;;;0.00;0.00;;;;;;;;;;5018049;28;20041;-88
2022/08/13 04:32:24;;;;;;;0.00;0.00;;;;;;;;;;5034927;28;20400;-89
2022/08/13 04:34:50;;;;;;;0.00;0.00;;;;;;;;;;5017765;28;20050;-85
2022/08/13 04:37:16;;;;;;;0.00;0.00;;;;;;;;;;5017172;28;20049;-86
2022/08/13 04:39:43;;;;;;;0.00;0.00;;;;;;;;;;5033970;28;20033;-86
2022/08/13 04:42:09;;;;;;;0.00;0.00;;;;;;;;;;5034164;28;20034;-87
2022/08/13 04:44:36;;;;;;;0.00;0.00;;;;;;;;;;5017392;28;20041;-87
2022/08/13 04:47:04;;;;;;;0.00;0.00;;;;;;;;;;5017560;28;20037;-87
2022/08/13 04:49:30;;;;;;;0.00;0.00;;;;;;;;;;5016951;28;20060;-87
2022/08/13 04:51:56;;;;;;;0.00;0.00;;;;;;;;;;5034078;28;20051;-88
2022/08/13 04:54:22;;;;;;;0.00;0.00;;;;;;;;;;5033793;28;20037;-88
2022/08/13 04:56:48;;;;;;;0.00;0.00;;;;;;;;;;5017570;28;20049;-87
2022/08/13 04:59:14;;;;;;;0.00;0.00;;;;;;;;;;5033781;28;20450;-87
2022/08/13 05:01:40;;;;;;;0.00;0.00;;;;;;;;;;5033888;28;20451;-88
2022/08/13 05:04:06;;;;;;;0.00;0.00;;;;;;;;;;5033692;28;20064;-88
2022/08/13 05:06:32;;;;;;;0.00;0.00;;;;;;;;;;5033688;28;20091;-87
2022/08/13 05:09:01;;;;;;;0.00;0.00;;;;;;;;;;5017266;28;20041;-88
2022/08/13 05:11:27;;;;;;;0.00;0.00;;;;;;;;;;5017569;28;20072;-92
2022/08/13 05:13:53;;;;;;;0.00;0.00;;;;;;;;;;5017382;28;20041;-92
2022/08/13 05:16:19;;;;;;;0.00;0.00;;;;;;;;;;5017702;28;20037;-92
2022/08/13 05:18:48;;;;;;;0.00;0.00;;;;;;;;;;5017926;28;20038;-91
2022/08/13 05:21:14;;;;;;;0.00;0.00;;;;;;;;;;5018284;28;20044;-90
2022/08/13 05:23:41;;;;;;;0.00;0.00;;;;;;;;;;5034511;28;20041;-91
2022/08/13 05:26:07;;;;;;;0.00;0.00;;;;;;;;;;5033942;28;20052;-90
2022/08/13 05:28:34;;;;;;;0.00;0.00;;;;;;;;;;5034037;28;20045;-91
2022/08/13 05:31:00;;;;;;;0.00;0.00;;;;;;;;;;5033882;28;20037;-89
2022/08/13 05:33:27;;;;;;;0.00;0.00;;;;;;;;;;5033669;28;20057;-90
2022/08/13 05:35:55;;;;;;;0.00;0.00;;;;;;;;;;5016080;28;20042;-87
2022/08/13 05:38:23;;;;;;;0.00;0.00;;;;;;;;;;5033412;28;20051;-86
2022/08/13 05:40:56;;;;;;;0.00;0.00;;;;;;;;;;5032374;28;20064;-86
2022/08/13 05:43:24;;;;;;;0.00;0.00;;;;;;;;;;5013803;28;20045;-87
2022/08/13 05:45:57;;;;;;;0.00;0.00;;;;;;;;;;5015870;28;20046;-86
2022/08/13 05:48:23;;;;;;;0.00;0.00;;;;;;;;;;5032478;28;20041;-87
2022/08/13 05:50:51;;;;;;;0.00;0.00;;;;;;;;;;5031990;28;20065;-86
2022/08/13 05:53:17;;;;;;;0.00;0.00;;;;;;;;;;5015872;28;20102;-86
2022/08/13 05:55:44;;;;;;;0.00;0.00;;;;;;;;;;5015053;28;20386;-88
2022/08/13 05:58:12;;;;;;;0.00;0.00;;;;;;;;;;5032394;28;20041;-87
2022/08/13 06:03:27;;;;;;;0.00;0.00;;;;;;;;;;5032327;28;20096;-87
2022/08/13 06:05:55;;;;;;;0.00;0.00;;;;;;;;;;5032037;28;20288;-88
2022/08/13 06:08:35;;;;;;;0.00;0.00;;;;;;;;;;5015708;28;20038;-87
2022/08/13 06:11:03;;;;;;;0.00;0.00;;;;;;;;;;5031738;28;20160;-86
2022/08/13 06:13:30;;;;;;;0.00;0.00;;;;;;;;;;5031684;28;20048;-87
2022/08/13 06:16:00;;;;;;;0.00;0.00;;;;;;;;;;5012248;28;20544;-86
2022/08/13 06:18:33;;;;;;;0.00;0.00;;;;;;;;;;5029134;28;20393;-88
2022/08/13 06:21:00;;;;;;;0.00;0.00;;;;;;;;;;5012454;28;20049;-87
2022/08/13 06:23:28;;;;;;;0.00;0.00;;;;;;;;;;5028999;28;20345;-85
2022/08/13 06:25:54;;;;;;;0.00;0.00;;;;;;;;;;5012180;28;20098;-86
2022/08/13 06:28:21;;;;;;;0.00;0.00;;;;;;;;;;5028564;28;20124;-86
2022/08/13 06:30:49;;;;;;;0.00;0.00;;;;;;;;;;5028506;28;20068;-87
2022/08/13 06:33:15;;;;;;;0.00;0.00;;;;;;;;;;5028839;28;20519;-87
2022/08/13 06:35:43;;;;;;;0.00;0.00;;;;;;;;;;5028459;28;20671;-87
2022/08/13 06:38:09;;;;;;;0.00;0.00;;;;;;;;;;5028801;28;20041;-87
2022/08/13 06:40:35;;;;;;;0.00;0.00;;;;;;;;;;5028472;28;20497;-86
2022/08/13 06:43:04;;;;;;;0.00;0.00;;;;;;;;;;5028657;28;20068;-87
2022/08/13 06:45:30;;;;;;;0.00;0.00;;;;;;;;;;5012203;28;20056;-87
2022/08/13 06:47:57;;;;;;;0.00;0.00;;;;;;;;;;5028746;28;20053;-87
2022/08/13 06:50:23;;;;;;;0.00;0.00;;;;;;;;;;5028061;28;20560;-87
2022/08/13 06:52:49;;;;;;;0.00;0.00;;;;;;;;;;5028709;28;20129;-87
2022/08/13 06:55:17;;;;;;;0.00;0.00;;;;;;;;;;5012431;28;20124;-87
2022/08/13 06:57:45;;;;;;;0.00;0.00;;;;;;;;;;5022093;28;20073;-86
2022/08/13 07:00:11;;;;;;;0.00;0.00;;;;;;;;;;5028228;28;20063;-87
2022/08/13 07:02:39;;;;;;;0.00;0.00;;;;;;;;;;5012274;28;20536;-87
2022/08/13 07:05:05;;;;;;;0.00;0.00;;;;;;;;;;5011666;28;20041;-87
2022/08/13 07:07:32;;;;;;;0.00;0.00;;;;;;;;;;5031671;28;20045;-86
2022/08/13 07:09:59;;;;;;;0.00;0.00;;;;;;;;;;5032259;28;20567;-86
2022/08/13 07:12:26;;;;;;;0.00;0.00;;;;;;;;;;5015869;28;20048;-87
2022/08/13 07:14:52;;;;;;;0.00;0.00;;;;;;;;;;5015945;28;20048;-86
2022/08/13 07:17:20;;;;;;;0.00;0.00;;;;;;;;;;5015642;28;20393;-87
2022/08/13 07:19:46;;;;;;;0.00;0.00;;;;;;;;;;5015833;28;20085;-86
2022/08/13 07:22:12;;;;;;;0.00;0.00;;;;;;;;;;5017130;28;20084;-87
2022/08/13 07:24:38;;;;;;;0.00;0.00;;;;;;;;;;5035203;28;20094;-86
2022/08/13 07:27:06;;;;;;;0.00;0.00;;;;;;;;;;5034693;28;20041;-86
2022/08/13 07:29:35;;;;;;;0.00;0.00;;;;;;;;;;5019132;28;20044;-88
2022/08/13 07:32:02;;;;;;;0.00;0.00;;;;;;;;;;5020219;28;20059;-88
2022/08/13 07:34:31;;;;;;;0.00;0.00;;;;;;;;;;5036367;28;20037;-87
2022/08/13 07:36:57;;;;;;;0.00;0.00;;;;;;;;;;5019432;28;20492;-86
2022/08/13 07:39:23;;;;;;;0.00;0.00;;;;;;;;;;5036329;28;20139;-88
2022/08/13 07:41:49;;;;;;;0.00;0.00;;;;;;;;;;5020634;28;20073;-86
2022/08/13 07:44:20;;;;;;;0.00;0.00;;;;;;;;;;5036059;28;20077;-87
2022/08/13 07:46:46;;;;;;;0.00;0.00;;;;;;;;;;5035182;28;20046;-86
2022/08/13 07:49:13;;;;;;;0.00;0.00;;;;;;;;;;5035761;28;20052;-86
2022/08/13 07:51:43;;;;;;;0.00;0.00;;;;;;;;;;5035330;28;20455;-86
2022/08/13 07:54:10;;;;;;;0.00;0.00;;;;;;;;;;5035023;28;20041;-87
2022/08/13 07:56:37;;;;;;;0.00;0.00;;;;;;;;;;5034511;28;20107;-87
2022/08/13 07:59:06;;;;;;;0.00;0.00;;;;;;;;;;5034898;28;20124;-87
2022/08/13 08:01:34;;;;;;;0.00;0.00;;;;;;;;;;5034214;28;20057;-87
2022/08/13 08:04:02;;;;;;;0.00;0.00;;;;;;;;;;5017974;28;20064;-86
2022/08/13 08:06:29;;;;;;;0.00;0.00;;;;;;;;;;5033923;28;20140;-87
2022/08/13 08:08:55;;;;;;;0.00;0.00;;;;;;;;;;5017713;28;20374;-85
2022/08/13 08:14:06;;;;;;;;;;;;;;;;;;5033869;28;20057;-87
2022/08/13 08:16:36;;;;;;;0.00;0.00;;;;;;;;;;5033797;28;20486;-88
2022/08/13 08:19:03;;;;;;;0.00;0.00;;;;;;;;;;5017584;28;20534;-88
2022/08/13 08:21:29;;;;;;;0.00;0.00;;;;;;;;;;5033969;28;20103;-86
2022/08/13 08:23:57;;;;;;;0.00;0.00;;;;;;;;;;5034073;28;20045;-87
2022/08/13 08:26:26;;;;;;;0.00;0.00;;;;;;;;;;5033749;28;20052;-87
2022/08/13 08:28:53;;;;;;;0.00;0.00;;;;;;;;;;5034061;28;20049;-87
2022/08/13 08:31:19;;;;;;;0.00;0.00;;;;;;;;;;5033722;28;20493;-86
2022/08/13 08:33:47;;;;;;;0.00;0.00;;;;;;;;;;5033953;28;20048;-86
2022/08/13 08:36:13;;;;;;;0.00;0.00;;;;;;;;;;5033433;28;20399;-86
2022/08/13 08:44:23;;;;;;;0.00;0.00;;;;;;;;;;5024893;28;20165;-86
2022/08/13 08:46:51;;;;;;;0.00;0.00;;;;;;;;;;5017425;28;20053;-86
2022/08/13 08:49:21;;;;;;;0.00;0.00;;;;;;;;;;5033571;28;20077;-86
2022/08/13 08:51:47;;;;;;;0.00;0.00;;;;;;;;;;5016840;28;20060;-85
2022/08/13 08:54:14;;;;;;;0.00;0.00;;;;;;;;;;5033632;28;20124;-84
2022/08/13 08:56:41;;;;;;;0.00;0.00;;;;;;;;;;5016824;28;20041;-84
2022/08/13 08:59:09;;;;;;;0.00;0.00;;;;;;;;;;5033432;28;20053;-84
2022/08/13 09:01:35;;;;;;;0.00;0.00;;;;;;;;;;5033166;28;20045;-84
2022/08/13 09:04:05;;;;;;;0.00;0.00;;;;;;;;;;5033262;28;20072;-84
2022/08/13 09:06:31;;;;;;;0.00;0.00;;;;;;;;;;5016534;28;20049;-85
2022/08/13 09:08:58;;;;;;;0.00;0.00;;;;;;;;;;5033186;28;20083;-85
2022/08/13 09:11:24;;;;;;;0.00;0.00;;;;;;;;;;5033143;28;20123;-84
2022/08/13 09:13:52;;;;;;;0.00;0.00;;;;;;;;;;5033002;28;20049;-84
2022/08/13 09:16:18;;;;;;;0.00;0.00;;;;;;;;;;5016238;28;20073;-84
2022/08/13 09:18:44;;;;;;;0.00;0.00;;;;;;;;;;5033175;28;20040;-84
2022/08/13 09:21:10;;;;;;;0.00;0.00;;;;;;;;;;5033097;28;20040;-84
2022/08/13 09:23:42;;;;;;;0.00;0.00;;;;;;;;;;5016467;28;20436;-85
2022/08/13 09:26:10;;;;;;;0.00;0.00;;;;;;;;;;5033123;28;20404;-85
2022/08/13 09:28:38;;;;;;;0.00;0.00;;;;;;;;;;5031897;28;20060;-83
2022/08/13 09:31:04;;;;;;;0.00;0.00;;;;;;;;;;5034137;28;20436;-85
2022/08/13 09:33:31;;;;;;;0.00;0.00;;;;;;;;;;5016050;28;20115;-85
2022/08/13 09:35:57;;;;;;;0.00;0.00;;;;;;;;;;5032360;28;20053;-86
2022/08/13 09:38:24;;;;;;;0.00;0.00;;;;;;;;;;5015984;28;20059;-84
2022/08/13 09:40:54;;;;;;;0.00;0.00;;;;;;;;;;5032419;28;20038;-85
2022/08/13 09:43:22;;;;;;;0.00;0.00;;;;;;;;;;5015696;28;20092;-83
2022/08/13 09:45:49;;;;;;;0.00;0.00;;;;;;;;;;5032346;28;20073;-83
2022/08/13 09:48:15;;;;;;;0.00;0.00;;;;;;;;;;5032149;28;20485;-84
2022/08/13 09:50:41;;;;;;;0.00;0.00;;;;;;;;;;5032061;28;20053;-82
2022/08/13 09:53:08;;;;;;;0.00;0.00;;;;;;;;;;5032600;28;20049;-83
2022/08/13 09:55:37;;;;;;;0.00;0.00;;;;;;;;;;5015409;28;20122;-85
2022/08/13 09:58:04;;;;;;;0.00;0.00;;;;;;;;;;5015323;28;20508;-84
2022/08/13 10:00:32;;;;;;;0.00;0.00;;;;;;;;;;5032073;28;20045;-84
2022/08/13 10:02:59;;;;;;;0.00;0.00;;;;;;;;;;5031682;28;20119;-85
2022/08/13 10:05:26;;;;;;;0.00;0.00;;;;;;;;;;5031829;28;20041;-84
2022/08/13 10:07:52;;;;;;;0.00;0.00;;;;;;;;;;5031774;28;20175;-83
2022/08/13 10:10:19;;;;;;;0.00;0.00;;;;;;;;;;5032971;28;20042;-84
2022/08/13 10:12:45;;;;;;;0.00;0.00;;;;;;;;;;5031737;28;20397;-83
2022/08/13 10:15:12;;;;;;;0.00;0.00;;;;;;;;;;5031574;28;20169;-83
2022/08/13 10:17:45;;;;;;;0.00;0.00;;;;;;;;;;5031667;28;20051;-84
2022/08/13 10:20:12;;;;;;;0.00;0.00;;;;;;;;;;5031794;28;20045;-84
2022/08/13 10:22:38;;;;;;;0.00;0.00;;;;;;;;;;5031222;28;20045;-83
2022/08/13 10:25:04;;;;;;;0.00;0.00;;;;;;;;;;5031371;28;20049;-84
2022/08/13 10:27:30;;;;;;;0.00;0.00;;;;;;;;;;5031409;28;20037;-83
2022/08/13 10:29:56;;;;;;;0.00;0.00;;;;;;;;;;5015114;28;20052;-84
2022/08/13 10:32:22;;;;;;;0.00;0.00;;;;;;;;;;5031296;28;20368;-84
2022/08/13 10:34:49;;;;;;;0.00;0.00;;;;;;;;;;5031619;28;20045;-84
2022/08/13 10:37:15;;;;;;;0.32;0.03;;;;;;;;;;5031215;28;20056;-84
2022/08/13 10:39:41;;;;;;;0.00;0.00;;;;;;;;;;5031321;28;20130;-83
2022/08/13 10:42:07;;;;;;;0.00;0.00;;;;;;;;;;5031151;28;20438;-84
2022/08/13 10:44:34;;;;;;;0.00;0.00;;;;;;;;;;5031472;28;20077;-83
2022/08/13 10:47:00;;;;;;;0.00;0.00;;;;;;;;;;5031421;28;20049;-84
2022/08/13 10:49:29;;;;;;;0.00;0.00;;;;;;;;;;5014480;28;20061;-84
2022/08/13 10:51:55;;;;;;;0.00;0.00;;;;;;;;;;5031024;28;20038;-83
2022/08/13 10:54:24;;;;;;;0.00;0.00;;;;;;;;;;5031095;28;20042;-84
2022/08/13 10:56:50;;;;;;;0.00;0.00;;;;;;;;;;5030950;28;20041;-84
2022/08/13 10:59:16;;;;;;;0.10;0.00;;;;;;;;;;5030888;28;20045;-83
2022/08/13 11:01:42;;;;;;;0.38;0.00;;;;;;;;;;5031139;28;20033;-83
2022/08/13 11:04:09;;;;;;;0.00;0.00;;;;;;;;;;5030917;28;20038;-84
2022/08/13 11:06:36;;;;;;;0.00;0.00;;;;;;;;;;5014490;28;20037;-84
2022/08/13 11:09:03;;;;;;;0.00;0.00;;;;;;;;;;5029732;28;20053;-83
2022/08/13 11:11:29;;;;;;;0.00;0.00;;;;;;;;;;5014449;28;20068;-84
2022/08/13 11:13:55;;;;;;;0.00;0.00;;;;;;;;;;5014445;28;20061;-84
2022/08/13 11:16:56;;;;;;;0.00;0.00;;;;;;;;;;5031229;28;20038;-83
2022/08/13 11:19:18;;;;;;;0.00;0.00;;;;;;;;;;5031873;28;20041;-84
2022/08/13 11:21:44;;;;;;;0.00;0.00;;;;;;;;;;5030922;28;20057;-83
2022/08/13 11:24:11;;;;;;;0.00;0.00;;;;;;;;;;5014219;28;20048;-85
2022/08/13 11:26:38;;;;;;;0.00;0.00;;;;;;;;;;5014165;28;20048;-84
2022/08/13 11:29:04;;;;;;;0.00;0.00;;;;;;;;;;5014005;28;20046;-84
2022/08/13 11:31:31;;;;;;;0.00;0.00;;;;;;;;;;5014318;28;20048;-84
2022/08/13 11:33:57;;;;;;;0.00;0.00;;;;;;;;;;5014426;28;20106;-85
2022/08/13 11:36:23;;;;;;;0.00;0.00;;;;;;;;;;5030828;28;20513;-84
2022/08/13 11:38:49;;;;;;;0.00;0.00;;;;;;;;;;5030536;28;20042;-84
2022/08/13 11:41:15;;;;;;;0.00;0.00;;;;;;;;;;5014206;28;20037;-86
2022/08/13 11:43:41;;;;;;;0.00;0.00;;;;;;;;;;5032284;28;20041;-85
2022/08/13 11:46:07;;;;;;;0.00;0.00;;;;;;;;;;5014472;28;20448;-86
2022/08/13 11:48:33;;;;;;;0.00;0.00;;;;;;;;;;5030356;28;20038;-84
2022/08/13 11:50:59;;;;;;;0.00;0.00;;;;;;;;;;5030473;28;20532;-84
2022/08/13 11:53:26;;;;;;;0.00;0.00;;;;;;;;;;5016538;28;20421;-83
2022/08/13 11:55:52;;;;;;;0.00;0.00;;;;;;;;;;5034262;28;20382;-83
2022/08/13 11:58:18;;;;;;;0.00;0.00;;;;;;;;;;5033932;28;20368;-85
2022/08/13 12:00:44;;;;;;;0.00;0.00;;;;;;;;;;5034159;28;20045;-85
2022/08/13 12:03:10;;;;;;;0.00;0.00;;;;;;;;;;5017793;28;20072;-83
2022/08/13 12:05:36;;;;;;;0.00;0.00;;;;;;;;;;5018168;28;20436;-84
2022/08/13 12:08:02;;;;;;;0.00;0.00;;;;;;;;;;5034026;28;20396;-84
2022/08/13 12:10:29;;;;;;;0.00;0.00;;;;;;;;;;5034213;28;20060;-85
2022/08/13 12:12:55;;;;;;;0.00;0.00;;;;;;;;;;5034334;28;20064;-84
2022/08/13 12:15:21;;;;;;;0.00;0.00;;;;;;;;;;5035170;28;20497;-86
2022/08/13 12:17:48;;;;;;;0.00;0.00;;;;;;;;;;5034010;28;20408;-85
2022/08/13 12:20:19;;;;;;;0.00;0.00;;;;;;;;;;5033691;28;20088;-85
2022/08/13 12:22:45;;;;;;;0.00;0.00;;;;;;;;;;5033910;28;20509;-84
2022/08/13 12:25:11;;;;;;;0.00;0.00;;;;;;;;;;5033645;28;20041;-83
2022/08/13 12:27:39;;;;;;;0.00;0.00;;;;;;;;;;5017285;28;20053;-83
2022/08/13 12:30:06;;;;;;;0.00;0.00;;;;;;;;;;5034843;28;20347;-84
2022/08/13 12:32:32;;;;;;;0.00;0.00;;;;;;;;;;5033640;28;20049;-86
2022/08/13 12:34:58;;;;;;;0.00;0.00;;;;;;;;;;5033560;28;20048;-85
2022/08/13 12:37:24;;;;;;;0.00;0.00;;;;;;;;;;5033923;28;20124;-85
2022/08/13 12:39:53;;;;;;;0.00;0.00;;;;;;;;;;5033460;28;20136;-85
2022/08/13 12:42:20;;;;;;;0.00;0.00;;;;;;;;;;5033444;28;20361;-86
2022/08/13 12:44:46;;;;;;;0.00;0.00;;;;;;;;;;5033563;28;20041;-85
2022/08/13 12:47:12;;;;;;;0.00;0.00;;;;;;;;;;5033575;28;20044;-85
2022/08/13 12:49:38;;;;;;;0.00;0.00;;;;;;;;;;5017057;28;20049;-83
2022/08/13 12:52:04;;;;;;;0.00;0.00;;;;;;;;;;5033513;28;20045;-83
2022/08/13 12:54:30;;;;;;;0.00;0.00;;;;;;;;;;5033335;28;20037;-84
2022/08/13 12:56:56;;;;;;;0.00;0.00;;;;;;;;;;5033279;28;20397;-84
2022/08/13 12:59:22;;;;;;;0.00;0.00;;;;;;;;;;5033061;28;20045;-84
2022/08/13 13:01:52;;;;;;;0.00;0.00;;;;;;;;;;5016662;28;20389;-85
2022/08/13 13:04:18;;;;;;;0.00;0.00;;;;;;;;;;5031893;28;20416;-84
2022/08/13 13:06:44;;;;;;;0.00;0.00;;;;;;;;;;5033140;28;20106;-85
2022/08/13 13:09:10;;;;;;;0.00;0.00;;;;;;;;;;5032978;28;20120;-86
2022/08/13 13:11:38;;;;;;;0.00;0.00;;;;;;;;;;5033405;28;20049;-85
2022/08/13 13:14:04;;;;;;;0.00;0.00;;;;;;;;;;5033077;28;20095;-86
2022/08/13 13:16:31;;;;;;;0.00;0.00;;;;;;;;;;5033116;28;20049;-84
2022/08/13 13:18:58;;;;;;;0.00;0.00;;;;;;;;;;5033245;28;20080;-86
2022/08/13 13:21:24;;;;;;;0.00;0.00;;;;;;;;;;5016681;28;20060;-83
2022/08/13 13:23:50;;;;;;;0.00;0.00;;;;;;;;;;5032817;28;20040;-84
2022/08/13 13:26:16;;;;;;;0.00;0.00;;;;;;;;;;5032825;28;20080;-84
2022/08/13 13:28:44;;;;;;;0.00;0.00;;;;;;;;;;5033292;28;20088;-85
2022/08/13 13:31:10;;;;;;;0.00;0.00;;;;;;;;;;5016128;28;20072;-85
2022/08/13 13:33:36;;;;;;;0.00;0.00;;;;;;;;;;5016372;28;20064;-85
2022/08/13 13:36:03;;;;;;;0.00;0.00;;;;;;;;;;5015937;28;20049;-85
2022/08/13 13:38:29;;;;;;;0.00;0.00;;;;;;;;;;5032614;28;20045;-85
2022/08/13 13:40:55;;;;;;;0.00;0.00;;;;;;;;;;5032605;28;20048;-85
2022/08/13 13:43:24;;;;;;;0.00;0.00;;;;;;;;;;5016227;28;20033;-85
2022/08/13 13:45:50;;;;;;;0.00;0.00;;;;;;;;;;5015882;28;20042;-84
2022/08/13 13:48:18;;;;;;;0.00;0.00;;;;;;;;;;5032615;28;20465;-84
2022/08/13 13:50:44;;;;;;;0.00;0.00;;;;;;;;;;5032380;28;20065;-84
2022/08/13 13:53:11;;;;;;;0.00;0.00;;;;;;;;;;5032706;28;20061;-84
2022/08/13 13:55:37;;;;;;;0.00;0.00;;;;;;;;;;5032279;28;20052;-85
2022/08/13 13:58:03;;;;;;;0.00;0.00;;;;;;;;;;5032521;28;20039;-84
2022/08/13 14:00:30;;;;;;;0.00;0.00;;;;;;;;;;5031967;28;20124;-83
2022/08/13 14:02:57;;;;;;;0.00;0.00;;;;;;;;;;5032525;28;20478;-85
2022/08/13 14:05:23;;;;;;;0.00;0.00;;;;;;;;;;5032079;28;20053;-85
2022/08/13 14:07:53;;;;;;;0.00;0.00;;;;;;;;;;5032240;28;20400;-85
2022/08/13 14:10:19;;;;;;;0.00;0.00;;;;;;;;;;5032232;28;20110;-85
2022/08/13 14:12:47;;;;;;;0.00;0.00;;;;;;;;;;5032108;28;20047;-85
2022/08/13 14:15:13;;;;;;;0.00;0.00;;;;;;;;;;5031511;28;20045;-85
2022/08/13 14:17:39;;;;;;;0.00;0.00;;;;;;;;;;5032114;28;20053;-85
2022/08/13 14:20:06;;;;;;;0.00;0.00;;;;;;;;;;5015640;28;20436;-85
2022/08/13 14:22:33;;;;;;;0.00;0.00;;;;;;;;;;5031936;28;20049;-84
2022/08/13 14:25:00;;;;;;;0.00;0.00;;;;;;;;;;5032133;28;20037;-86
2022/08/13 14:27:26;;;;;;;0.00;0.00;;;;;;;;;;5015734;28;20043;-85
2022/08/13 14:29:53;;;;;;;0.00;0.00;;;;;;;;;;5031838;28;20400;-84
2022/08/13 14:32:19;;;;;;;0.00;0.00;;;;;;;;;;5015382;28;20423;-85
2022/08/13 14:34:45;;;;;;;0.00;0.00;;;;;;;;;;5031546;28;20037;-84
2022/08/13 14:37:11;;;;;;;0.00;0.00;;;;;;;;;;5031752;28;20042;-85
2022/08/13 14:39:37;;;;;;;0.00;0.00;;;;;;;;;;5031568;28;20037;-85
2022/08/13 14:42:04;;;;;;;0.00;0.00;;;;;;;;;;5015332;28;20077;-84
2022/08/13 14:44:30;;;;;;;0.00;0.00;;;;;;;;;;5031655;28;20034;-85
2022/08/13 14:46:56;;;;;;;0.00;0.00;;;;;;;;;;5031219;28;20037;-84
2022/08/13 14:49:22;;;;;;;0.00;0.00;;;;;;;;;;5031699;28;20053;-85
2022/08/13 14:51:49;;;;;;;0.00;0.00;;;;;;;;;;5031495;28;20193;-86
2022/08/13 14:54:15;;;;;;;0.00;0.00;;;;;;;;;;5031587;28;20555;-84
2022/08/13 14:56:41;;;;;;;0.00;0.00;;;;;;;;;;5065880;28;20076;-84
2022/08/13 14:59:07;;;;;;;0.00;0.00;;;;;;;;;;5065799;28;20128;-84
2022/08/13 15:01:33;;;;;;;0.00;0.00;;;;;;;;;;5038567;28;20124;-85
2022/08/13 15:04:04;;;;;;;0.00;0.00;;;;;;;;;;5032728;28;20477;-86